Terminal Aerodrome Forecast
Issued by NWS

Home | Current Version | Previous Version | Text Only | Print | Product List | Glossary On
Versions: 1 2 3 4 5 6 7 8 9 10 11 12 13 14 15 16 17
000
FTUS43 KLSX 282300
TAFSUS
TAF
KSUS 282322Z 2900/2924 16010KT P6SM BKN150
     FM290300 20009KT P6SM BKN150 WS018/23040KT
     FM291000 26014G20KT P6SM BKN100
     FM291300 29018G28KT P6SM OVC015
     FM291700 31017G26KT P6SM BKN020
     FM292200 32012KT P6SM SCT030=

USA.gov is the U.S. government's official web portal to all federal, state and local government web resources and services.